sensor_id;sensor_type;location;lat;lon;timestamp;pressure;altitude;pressure_sealevel;temperature;humidity
21129;BME280;10722;51.910;8.352;2022-12-24T00:00:06;99680.13;;;9.56;100.00
21129;BME280;10722;51.910;8.352;2022-12-24T00:02:52;99693.88;;;9.51;100.00
21129;BME280;10722;51.910;8.352;2022-12-24T00:05:37;99714.53;;;9.48;100.00
21129;BME280;10722;51.910;8.352;2022-12-24T00:08:23;99700.75;;;9.49;100.00
21129;BME280;10722;51.910;8.352;2022-12-24T00:11:08;99696.44;;;9.48;100.00
21129;BME280;10722;51.910;8.352;2022-12-24T00:13:54;99699.00;;;9.45;100.00
21129;BME280;10722;51.910;8.352;2022-12-24T00:16:39;99710.19;;;9.45;100.00
21129;BME280;10722;51.910;8.352;2022-12-24T00:19:25;99717.06;;;9.41;100.00
21129;BME280;10722;51.910;8.352;2022-12-24T00:22:10;99719.63;;;9.40;100.00
21129;BME280;10722;51.910;8.352;2022-12-24T00:24:55;99718.78;;;9.38;100.00
21129;BME280;10722;51.910;8.352;2022-12-24T00:27:41;99723.88;;;9.32;100.00
21129;BME280;10722;51.910;8.352;2022-12-24T00:30:26;99727.38;;;9.35;100.00
21129;BME280;10722;51.910;8.352;2022-12-24T00:33:11;99717.03;;;9.40;100.00
21129;BME280;10722;51.910;8.352;2022-12-24T00:35:56;99725.69;;;9.40;100.00
21129;BME280;10722;51.910;8.352;2022-12-24T00:38:41;99730.78;;;9.37;100.00
21129;BME280;10722;51.910;8.352;2022-12-24T00:41:27;99732.53;;;9.38;100.00
21129;BME280;10722;51.910;8.352;2022-12-24T00:44:11;99737.72;;;9.41;100.00
21129;BME280;10722;51.910;8.352;2022-12-24T00:46:57;99724.81;;;9.43;100.00
21129;BME280;10722;51.910;8.352;2022-12-24T00:49:42;99736.84;;;9.39;100.00
21129;BME280;10722;51.910;8.352;2022-12-24T00:52:27;99738.56;;;9.36;100.00
21129;BME280;10722;51.910;8.352;2022-12-24T00:55:12;99737.69;;;9.35;100.00
21129;BME280;10722;51.910;8.352;2022-12-24T00:57:57;99757.44;;;9.30;100.00
21129;BME280;10722;51.910;8.352;2022-12-24T01:00:42;99758.28;;;9.28;100.00
21129;BME280;10722;51.910;8.352;2022-12-24T01:03:27;99763.47;;;9.32;100.00
21129;BME280;10722;51.910;8.352;2022-12-24T01:06:19;99779.81;;;9.31;100.00
21129;BME280;10722;51.910;8.352;2022-12-24T01:09:05;99772.97;;;9.39;100.00
21129;BME280;10722;51.910;8.352;2022-12-24T01:11:50;99771.22;;;9.34;100.00
21129;BME280;10722;51.910;8.352;2022-12-24T01:14:36;99776.41;;;9.37;100.00
21129;BME280;10722;51.910;8.352;2022-12-24T01:17:22;99777.34;;;9.43;100.00
21129;BME280;10722;51.910;8.352;2022-12-24T01:20:12;99781.63;;;9.41;100.00
21129;BME280;10722;51.910;8.352;2022-12-24T01:22:57;99792.75;;;9.37;100.00
21129;BME280;10722;51.910;8.352;2022-12-24T01:25:43;99791.06;;;9.39;100.00
21129;BME280;10722;51.910;8.352;2022-12-24T01:28:28;99801.34;;;9.33;100.00
21129;BME280;10722;51.910;8.352;2022-12-24T01:31:16;99800.44;;;9.27;100.00
21129;BME280;10722;51.910;8.352;2022-12-24T01:34:02;99789.22;;;9.22;100.00
21129;BME280;10722;51.910;8.352;2022-12-24T01:36:47;99803.81;;;9.19;100.00
21129;BME280;10722;51.910;8.352;2022-12-24T01:39:33;99811.53;;;9.19;100.00
21129;BME280;10722;51.910;8.352;2022-12-24T01:42:20;99809.81;;;9.20;100.00
21129;BME280;10722;51.910;8.352;2022-12-24T01:45:38;99829.69;;;9.27;100.00
21129;BME280;10722;51.910;8.352;2022-12-24T01:51:38;99820.25;;;9.31;100.00
21129;BME280;10722;51.910;8.352;2022-12-24T01:54:31;99823.72;;;9.34;100.00
21129;BME280;10722;51.910;8.352;2022-12-24T01:57:27;99837.44;;;9.32;100.00
21129;BME280;10722;51.910;8.352;2022-12-24T02:00:15;99829.72;;;9.32;100.00
21129;BME280;10722;51.910;8.352;2022-12-24T02:03:01;99828.84;;;9.30;100.00
21129;BME280;10722;51.910;8.352;2022-12-24T02:08:32;99832.28;;;9.32;100.00
21129;BME280;10722;51.910;8.352;2022-12-24T02:11:20;99846.09;;;9.34;100.00
21129;BME280;10722;51.910;8.352;2022-12-24T02:14:06;99846.09;;;9.32;100.00
21129;BME280;10722;51.910;8.352;2022-12-24T02:35:32;99859.78;;;9.24;100.00
21129;BME280;10722;51.910;8.352;2022-12-24T02:38:36;99857.19;;;9.25;100.00
21129;BME280;10722;51.910;8.352;2022-12-24T02:41:25;99854.66;;;9.30;100.00
21129;BME280;10722;51.910;8.352;2022-12-24T02:44:12;99858.09;;;9.32;100.00
21129;BME280;10722;51.910;8.352;2022-12-24T02:46:59;99867.56;;;9.31;100.00
21129;BME280;10722;51.910;8.352;2022-12-24T02:49:46;99865.78;;;9.26;100.00
21129;BME280;10722;51.910;8.352;2022-12-24T02:52:35;99880.44;;;9.24;100.00
21129;BME280;10722;51.910;8.352;2022-12-24T02:55:43;99882.16;;;9.28;100.00
21129;BME280;10722;51.910;8.352;2022-12-24T03:01:56;99887.31;;;9.25;100.00
21129;BME280;10722;51.910;8.352;2022-12-24T03:05:12;99906.16;;;9.20;100.00
21129;BME280;10722;51.910;8.352;2022-12-24T03:08:26;99902.75;;;9.23;100.00
21129;BME280;10722;51.910;8.352;2022-12-24T03:11:16;99903.69;;;9.27;100.00
21129;BME280;10722;51.910;8.352;2022-12-24T03:14:02;99922.56;;;9.21;100.00
21129;BME280;10722;51.910;8.352;2022-12-24T03:16:48;99916.53;;;9.22;100.00
21129;BME280;10722;51.910;8.352;2022-12-24T03:19:34;99912.25;;;9.24;100.00
21129;BME280;10722;51.910;8.352;2022-12-24T03:22:19;99926.00;;;9.26;100.00
21129;BME280;10722;51.910;8.352;2022-12-24T03:25:06;99923.44;;;9.25;100.00
21129;BME280;10722;51.910;8.352;2022-12-24T03:27:52;99930.28;;;9.23;100.00
21129;BME280;10722;51.910;8.352;2022-12-24T03:30:44;99933.75;;;9.25;100.00
21129;BME280;10722;51.910;8.352;2022-12-24T03:33:30;99940.63;;;9.23;100.00
21129;BME280;10722;51.910;8.352;2022-12-24T03:36:16;99946.63;;;9.23;100.00
21129;BME280;10722;51.910;8.352;2022-12-24T03:39:01;99954.34;;;9.20;100.00
21129;BME280;10722;51.910;8.352;2022-12-24T03:41:47;99958.63;;;9.16;100.00
21129;BME280;10722;51.910;8.352;2022-12-24T03:44:32;99948.34;;;9.21;100.00
21129;BME280;10722;51.910;8.352;2022-12-24T03:47:17;99945.72;;;9.16;100.00
21129;BME280;10722;51.910;8.352;2022-12-24T03:50:02;99950.84;;;9.13;100.00
21129;BME280;10722;51.910;8.352;2022-12-24T03:52:47;99947.34;;;9.08;100.00
21129;BME280;10722;51.910;8.352;2022-12-24T03:55:33;99953.38;;;9.09;100.00
21129;BME280;10722;51.910;8.352;2022-12-24T03:58:18;99941.22;;;9.00;100.00
21129;BME280;10722;51.910;8.352;2022-12-24T04:01:03;99952.44;;;9.04;100.00
21129;BME280;10722;51.910;8.352;2022-12-24T04:03:48;99965.44;;;9.11;100.00
21129;BME280;10722;51.910;8.352;2022-12-24T04:06:33;99969.56;;;8.97;100.00
21129;BME280;10722;51.910;8.352;2022-12-24T04:09:18;99973.88;;;8.96;100.00
21129;BME280;10722;51.910;8.352;2022-12-24T04:12:03;99968.84;;;9.09;100.00
21129;BME280;10722;51.910;8.352;2022-12-24T04:14:48;99967.13;;;9.08;100.00
21129;BME280;10722;51.910;8.352;2022-12-24T04:17:33;99969.72;;;9.09;100.00
21129;BME280;10722;51.910;8.352;2022-12-24T04:20:18;99979.19;;;9.12;100.00
21129;BME280;10722;51.910;8.352;2022-12-24T04:23:03;99979.25;;;9.15;100.00
21129;BME280;10722;51.910;8.352;2022-12-24T04:25:49;99988.72;;;9.16;100.00
21129;BME280;10722;51.910;8.352;2022-12-24T04:28:36;99981.03;;;9.19;100.00
21129;BME280;10722;51.910;8.352;2022-12-24T04:31:22;99987.97;;;9.25;100.00
21129;BME280;10722;51.910;8.352;2022-12-24T04:34:07;99989.69;;;9.24;100.00
21129;BME280;10722;51.910;8.352;2022-12-24T04:36:52;99989.66;;;9.23;100.00
21129;BME280;10722;51.910;8.352;2022-12-24T04:39:38;99990.38;;;9.11;100.00
21129;BME280;10722;51.910;8.352;2022-12-24T04:42:23;99994.72;;;9.13;100.00
21129;BME280;10722;51.910;8.352;2022-12-24T04:45:08;99998.16;;;9.14;100.00
21129;BME280;10722;51.910;8.352;2022-12-24T04:47:53;100012.75;;;9.10;100.00
21129;BME280;10722;51.910;8.352;2022-12-24T04:50:38;100019.56;;;9.05;100.00
21129;BME280;10722;51.910;8.352;2022-12-24T04:53:23;100029.03;;;9.05;100.00
21129;BME280;10722;51.910;8.352;2022-12-24T04:56:13;100025.50;;;9.00;100.00
21129;BME280;10722;51.910;8.352;2022-12-24T04:59:00;100042.75;;;9.04;100.00
21129;BME280;10722;51.910;8.352;2022-12-24T05:01:45;100034.16;;;9.02;100.00
21129;BME280;10722;51.910;8.352;2022-12-24T05:04:30;100041.84;;;8.98;100.00
21129;BME280;10722;51.910;8.352;2022-12-24T05:07:16;100042.63;;;8.93;100.00
21129;BME280;10722;51.910;8.352;2022-12-24T05:10:01;100043.41;;;8.87;100.00
21129;BME280;10722;51.910;8.352;2022-12-24T05:12:46;100050.19;;;8.81;100.00
21129;BME280;10722;51.910;8.352;2022-12-24T05:15:31;100050.19;;;8.81;100.00
21129;BME280;10722;51.910;8.352;2022-12-24T05:18:17;100053.50;;;8.72;100.00
21129;BME280;10722;51.910;8.352;2022-12-24T05:21:07;100062.94;;;8.70;100.00
21129;BME280;10722;51.910;8.352;2022-12-24T05:23:52;100062.03;;;8.65;100.00
21129;BME280;10722;51.910;8.352;2022-12-24T05:26:39;100067.88;;;8.55;100.00
21129;BME280;10722;51.910;8.352;2022-12-24T05:29:25;100076.34;;;8.46;100.00
21129;BME280;10722;51.910;8.352;2022-12-24T05:32:10;100078.81;;;8.41;100.00
21129;BME280;10722;51.910;8.352;2022-12-24T05:34:55;100084.03;;;8.43;100.00
21129;BME280;10722;51.910;8.352;2022-12-24T05:37:40;100095.88;;;8.36;100.00
21129;BME280;10722;51.910;8.352;2022-12-24T05:40:25;100096.69;;;8.32;100.00
21129;BME280;10722;51.910;8.352;2022-12-24T05:43:10;100096.78;;;8.38;100.00
21129;BME280;10722;51.910;8.352;2022-12-24T05:46:00;100102.88;;;8.40;100.00
21129;BME280;10722;51.910;8.352;2022-12-24T05:48:46;100108.91;;;8.41;100.00
21129;BME280;10722;51.910;8.352;2022-12-24T05:51:32;100126.06;;;8.40;100.00
21129;BME280;10722;51.910;8.352;2022-12-24T05:54:18;100107.22;;;8.44;100.00
21129;BME280;10722;51.910;8.352;2022-12-24T05:57:03;100105.69;;;8.54;100.00
21129;BME280;10722;51.910;8.352;2022-12-24T05:59:48;100108.22;;;8.52;100.00
21129;BME280;10722;51.910;8.352;2022-12-24T06:02:33;100110.84;;;8.54;100.00
21129;BME280;10722;51.910;8.352;2022-12-24T06:05:18;100114.31;;;8.58;100.00
21129;BME280;10722;51.910;8.352;2022-12-24T06:08:03;100114.44;;;8.65;100.00
21129;BME280;10722;51.910;8.352;2022-12-24T06:10:56;100121.34;;;8.66;100.00
21129;BME280;10722;51.910;8.352;2022-12-24T06:13:42;100132.59;;;8.71;100.00
21129;BME280;10722;51.910;8.352;2022-12-24T06:16:27;100121.41;;;8.72;100.00
21129;BME280;10722;51.910;8.352;2022-12-24T06:19:12;100122.34;;;8.76;100.00
21129;BME280;10722;51.910;8.352;2022-12-24T06:21:57;100116.34;;;8.77;100.00
21129;BME280;10722;51.910;8.352;2022-12-24T06:24:43;100125.81;;;8.77;100.00
21129;BME280;10722;51.910;8.352;2022-12-24T06:27:28;100114.63;;;8.76;100.00
21129;BME280;10722;51.910;8.352;2022-12-24T06:30:13;100121.50;;;8.77;100.00
21129;BME280;10722;51.910;8.352;2022-12-24T06:32:58;100134.34;;;8.74;100.00
21129;BME280;10722;51.910;8.352;2022-12-24T06:35:45;100129.19;;;8.75;100.00
21129;BME280;10722;51.910;8.352;2022-12-24T06:38:30;100118.06;;;8.78;100.00
21129;BME280;10722;51.910;8.352;2022-12-24T06:41:16;100118.88;;;8.74;100.00
21129;BME280;10722;51.910;8.352;2022-12-24T06:44:01;100135.13;;;8.70;100.00
21129;BME280;10722;51.910;8.352;2022-12-24T06:46:47;100129.94;;;8.67;100.00
21129;BME280;10722;51.910;8.352;2022-12-24T06:49:32;100146.22;;;8.63;100.00
21129;BME280;10722;51.910;8.352;2022-12-24T06:52:17;100143.69;;;8.66;100.00
21129;BME280;10722;51.910;8.352;2022-12-24T06:55:04;100142.81;;;8.65;100.00
21129;BME280;10722;51.910;8.352;2022-12-24T06:57:49;100150.56;;;8.67;100.00
21129;BME280;10722;51.910;8.352;2022-12-24T07:00:34;100158.19;;;8.59;100.00
21129;BME280;10722;51.910;8.352;2022-12-24T07:03:19;100164.97;;;8.54;100.00
21129;BME280;10722;51.910;8.352;2022-12-24T07:06:06;100162.38;;;8.52;100.00
21129;BME280;10722;51.910;8.352;2022-12-24T07:08:52;100169.31;;;8.57;100.00
21129;BME280;10722;51.910;8.352;2022-12-24T07:11:37;100184.69;;;8.52;100.00
21129;BME280;10722;51.910;8.352;2022-12-24T07:14:22;100181.22;;;8.50;100.00
21129;BME280;10722;51.910;8.352;2022-12-24T07:17:07;100183.03;;;8.56;100.00
21129;BME280;10722;51.910;8.352;2022-12-24T07:19:52;100187.28;;;8.52;100.00
21129;BME280;10722;51.910;8.352;2022-12-24T07:22:37;100207.00;;;8.48;100.00
21129;BME280;10722;51.910;8.352;2022-12-24T07:25:23;100206.94;;;8.47;100.00
21129;BME280;10722;51.910;8.352;2022-12-24T07:28:08;100204.47;;;8.51;100.00
21129;BME280;10722;51.910;8.352;2022-12-24T07:30:54;100201.84;;;8.48;100.00
21129;BME280;10722;51.910;8.352;2022-12-24T07:33:40;100207.03;;;8.51;100.00
21129;BME280;10722;51.910;8.352;2022-12-24T07:36:25;100215.66;;;8.52;100.00
21129;BME280;10722;51.910;8.352;2022-12-24T07:39:10;100207.16;;;8.58;100.00
21129;BME280;10722;51.910;8.352;2022-12-24T07:41:55;100219.19;;;8.59;100.00
21129;BME280;10722;51.910;8.352;2022-12-24T07:44:40;100215.78;;;8.60;100.00
21129;BME280;10722;51.910;8.352;2022-12-24T07:47:25;100213.16;;;8.58;100.00
21129;BME280;10722;51.910;8.352;2022-12-24T07:50:10;100223.66;;;8.69;100.00
21129;BME280;10722;51.910;8.352;2022-12-24T07:52:56;100235.84;;;8.78;100.00
21129;BME280;10722;51.910;8.352;2022-12-24T07:55:41;100228.16;;;8.79;100.00
21129;BME280;10722;51.910;8.352;2022-12-24T07:58:26;100223.81;;;8.78;100.00
21129;BME280;10722;51.910;8.352;2022-12-24T08:01:12;100222.13;;;8.80;100.00
21129;BME280;10722;51.910;8.352;2022-12-24T08:03:57;100222.19;;;8.82;100.00
21129;BME280;10722;51.910;8.352;2022-12-24T08:06:43;100231.78;;;8.92;100.00
21129;BME280;10722;51.910;8.352;2022-12-24T08:09:31;100236.13;;;8.93;100.00
21129;BME280;10722;51.910;8.352;2022-12-24T08:12:16;100244.78;;;8.98;100.00
21129;BME280;10722;51.910;8.352;2022-12-24T08:15:01;100245.72;;;9.02;100.00
21129;BME280;10722;51.910;8.352;2022-12-24T08:17:49;100244.91;;;9.04;100.00
21129;BME280;10722;51.910;8.352;2022-12-24T08:20:39;100248.34;;;9.05;100.00
21129;BME280;10722;51.910;8.352;2022-12-24T08:23:25;100249.34;;;9.14;100.00
21129;BME280;10722;51.910;8.352;2022-12-24T08:26:10;100248.47;;;9.12;100.00
21129;BME280;10722;51.910;8.352;2022-12-24T08:28:56;100251.97;;;9.16;100.00
21129;BME280;10722;51.910;8.352;2022-12-24T08:31:41;100259.75;;;9.19;100.00
21129;BME280;10722;51.910;8.352;2022-12-24T08:34:26;100265.91;;;9.27;100.00
21129;BME280;10722;51.910;8.352;2022-12-24T08:37:12;100255.53;;;9.24;100.00
21129;BME280;10722;51.910;8.352;2022-12-24T08:39:57;100257.25;;;9.25;100.00
21129;BME280;10722;51.910;8.352;2022-12-24T08:42:43;100259.88;;;9.28;100.00
21129;BME280;10722;51.910;8.352;2022-12-24T08:45:29;100264.28;;;9.34;100.00
21129;BME280;10722;51.910;8.352;2022-12-24T08:48:23;100266.84;;;9.32;100.00
21129;BME280;10722;51.910;8.352;2022-12-24T08:51:09;100274.69;;;9.40;100.00
21129;BME280;10722;51.910;8.352;2022-12-24T08:53:54;100281.53;;;9.35;100.00
21129;BME280;10722;51.910;8.352;2022-12-24T08:56:40;100282.47;;;9.41;100.00
21129;BME280;10722;51.910;8.352;2022-12-24T08:59:25;100285.84;;;9.36;100.00
21129;BME280;10722;51.910;8.352;2022-12-24T09:02:10;100279.00;;;9.39;100.00
21129;BME280;10722;51.910;8.352;2022-12-24T09:04:56;100284.25;;;9.44;100.00
21129;BME280;10722;51.910;8.352;2022-12-24T09:07:41;100279.06;;;9.46;100.00
21129;BME280;10722;51.910;8.352;2022-12-24T09:10:27;100286.81;;;9.44;100.00
21129;BME280;10722;51.910;8.352;2022-12-24T09:13:12;100299.69;;;9.42;100.00
21129;BME280;10722;51.910;8.352;2022-12-24T09:15:57;100294.56;;;9.46;100.00
21129;BME280;10722;51.910;8.352;2022-12-24T09:18:42;100305.78;;;9.46;100.00
21129;BME280;10722;51.910;8.352;2022-12-24T09:21:27;100305.75;;;9.45;100.00
21129;BME280;10722;51.910;8.352;2022-12-24T09:24:13;100305.72;;;9.43;100.00
21129;BME280;10722;51.910;8.352;2022-12-24T09:26:58;100314.41;;;9.47;100.00
21129;BME280;10722;51.910;8.352;2022-12-24T09:29:44;100319.63;;;9.51;100.00
21129;BME280;10722;51.910;8.352;2022-12-24T09:32:29;100320.50;;;9.52;100.00
21129;BME280;10722;51.910;8.352;2022-12-24T09:35:14;100329.16;;;9.55;100.00
21129;BME280;10722;51.910;8.352;2022-12-24T09:37:59;100336.94;;;9.57;100.00
21129;BME280;10722;51.910;8.352;2022-12-24T09:40:45;100342.03;;;9.52;100.00
21129;BME280;10722;51.910;8.352;2022-12-24T09:43:32;100345.47;;;9.53;100.00
21129;BME280;10722;51.910;8.352;2022-12-24T09:46:29;100357.53;;;9.52;100.00
21129;BME280;10722;51.910;8.352;2022-12-24T09:49:19;100368.72;;;9.53;100.00
21129;BME280;10722;51.910;8.352;2022-12-24T09:52:18;100364.47;;;9.55;100.00
21129;BME280;10722;51.910;8.352;2022-12-24T09:55:20;100368.78;;;9.56;100.00
21129;BME280;10722;51.910;8.352;2022-12-24T09:58:17;100373.19;;;9.63;100.00
21129;BME280;10722;51.910;8.352;2022-12-24T10:01:03;100380.94;;;9.63;100.00
21129;BME280;10722;51.910;8.352;2022-12-24T10:03:49;100357.66;;;9.61;100.00
21129;BME280;10722;51.910;8.352;2022-12-24T10:15:46;100356.94;;;9.70;100.00
21129;BME280;10722;51.910;8.352;2022-12-24T10:19:42;100357.78;;;9.69;100.00
21129;BME280;10722;51.910;8.352;2022-12-24T10:22:07;100364.81;;;9.79;100.00
21129;BME280;10722;51.910;8.352;2022-12-24T10:25:04;100364.00;;;9.80;100.00
21129;BME280;10722;51.910;8.352;2022-12-24T10:27:54;100363.13;;;9.81;100.00
21129;BME280;10722;51.910;8.352;2022-12-24T10:30:39;100371.88;;;9.90;100.00
21129;BME280;10722;51.910;8.352;2022-12-24T10:33:47;100363.28;;;9.92;100.00
21129;BME280;10722;51.910;8.352;2022-12-24T10:36:33;100349.66;;;10.04;100.00
21129;BME280;10722;51.910;8.352;2022-12-24T10:39:22;100365.25;;;10.08;100.00
21129;BME280;10722;51.910;8.352;2022-12-24T10:42:10;100358.31;;;10.06;100.00
21129;BME280;10722;51.910;8.352;2022-12-24T10:45:02;100353.16;;;10.06;100.00
21129;BME280;10722;51.910;8.352;2022-12-24T10:47:51;100351.50;;;10.13;100.00
21129;BME280;10722;51.910;8.352;2022-12-24T10:50:44;100357.78;;;10.30;100.00
21129;BME280;10722;51.910;8.352;2022-12-24T10:53:44;100369.06;;;10.34;100.00
21129;BME280;10722;51.910;8.352;2022-12-24T10:56:31;100357.69;;;10.22;100.00
21129;BME280;10722;51.910;8.352;2022-12-24T11:02:32;100362.72;;;10.13;100.00
21129;BME280;10722;51.910;8.352;2022-12-24T11:05:30;100363.53;;;10.10;100.00
21129;BME280;10722;51.910;8.352;2022-12-24T11:08:18;100368.69;;;10.10;100.00
21129;BME280;10722;51.910;8.352;2022-12-24T11:11:06;100379.13;;;10.14;100.00
21129;BME280;10722;51.910;8.352;2022-12-24T11:13:54;100388.47;;;10.07;100.00
21129;BME280;10722;51.910;8.352;2022-12-24T11:16:53;100381.66;;;10.12;100.00
21129;BME280;10722;51.910;8.352;2022-12-24T11:19:39;100378.38;;;10.22;100.00
21129;BME280;10722;51.910;8.352;2022-12-24T11:22:29;100378.38;;;10.22;100.00
21129;BME280;10722;51.910;8.352;2022-12-24T11:25:33;100390.53;;;10.29;100.00
21129;BME280;10722;51.910;8.352;2022-12-24T11:28:25;100393.06;;;10.26;100.00
21129;BME280;10722;51.910;8.352;2022-12-24T11:31:20;100384.22;;;10.09;100.00
21129;BME280;10722;51.910;8.352;2022-12-24T11:34:23;100385.19;;;10.17;100.00
21129;BME280;10722;51.910;8.352;2022-12-24T11:37:15;100385.16;;;10.16;100.00
21129;BME280;10722;51.910;8.352;2022-12-24T11:40:01;100391.19;;;10.15;100.00
21129;BME280;10722;51.910;8.352;2022-12-24T11:42:47;100389.75;;;10.34;100.00
21129;BME280;10722;51.910;8.352;2022-12-24T11:45:33;100381.31;;;10.48;100.00
21129;BME280;10722;51.910;8.352;2022-12-24T11:48:28;100374.44;;;10.52;100.00
21129;BME280;10722;51.910;8.352;2022-12-24T11:51:25;100384.66;;;10.41;100.00
21129;BME280;10722;51.910;8.352;2022-12-24T11:54:26;100370.97;;;10.48;100.00
21129;BME280;10722;51.910;8.352;2022-12-24T11:57:16;100382.22;;;10.50;100.00
21129;BME280;10722;51.910;8.352;2022-12-24T12:00:07;100382.13;;;10.46;100.00
21129;BME280;10722;51.910;8.352;2022-12-24T12:02:56;100381.28;;;10.47;100.00
21129;BME280;10722;51.910;8.352;2022-12-24T12:05:43;100391.63;;;10.47;100.00
21129;BME280;10722;51.910;8.352;2022-12-24T12:08:30;100390.53;;;10.28;100.00
21129;BME280;10722;51.910;8.352;2022-12-24T12:11:16;100377.63;;;10.28;100.00
21129;BME280;10722;51.910;8.352;2022-12-24T12:14:02;100385.13;;;10.13;100.00
21129;BME280;10722;51.910;8.352;2022-12-24T12:16:57;100385.16;;;10.14;100.00
21129;BME280;10722;51.910;8.352;2022-12-24T12:25:26;100395.28;;;10.02;100.00
21129;BME280;10722;51.910;8.352;2022-12-24T12:28:34;100395.25;;;9.99;100.00
21129;BME280;10722;51.910;8.352;2022-12-24T12:31:33;100401.28;;;9.99;100.00
21129;BME280;10722;51.910;8.352;2022-12-24T12:34:31;100415.94;;;9.99;100.00
21129;BME280;10722;51.910;8.352;2022-12-24T12:37:31;100409.97;;;10.04;100.00
21129;BME280;10722;51.910;8.352;2022-12-24T12:40:18;100416.94;;;10.08;100.00
21129;BME280;10722;51.910;8.352;2022-12-24T12:43:21;100408.38;;;10.11;100.00
21129;BME280;10722;51.910;8.352;2022-12-24T12:49:23;100405.94;;;10.87;100.00
21129;BME280;10722;51.910;8.352;2022-12-24T12:58:25;100369.91;;;11.10;98.17
21129;BME280;10722;51.910;8.352;2022-12-24T13:04:36;100396.34;;;10.79;98.99
21129;BME280;10722;51.910;8.352;2022-12-24T13:11:22;100396.59;;;11.03;98.02
21129;BME280;10722;51.910;8.352;2022-12-24T13:20:24;100421.69;;;10.39;98.69
21129;BME280;10722;51.910;8.352;2022-12-24T13:23:17;100432.00;;;10.34;99.78
21129;BME280;10722;51.910;8.352;2022-12-24T13:26:10;100446.44;;;10.23;100.00
21129;BME280;10722;51.910;8.352;2022-12-24T13:29:28;100460.97;;;10.16;100.00
21129;BME280;10722;51.910;8.352;2022-12-24T13:44:24;100484.28;;;10.18;100.00
21129;BME280;10722;51.910;8.352;2022-12-24T13:50:12;100478.22;;;10.14;100.00
21129;BME280;10722;51.910;8.352;2022-12-24T13:52:58;100482.50;;;10.14;100.00
21129;BME280;10722;51.910;8.352;2022-12-24T13:55:54;100495.44;;;10.15;100.00
21129;BME280;10722;51.910;8.352;2022-12-24T13:58:43;100491.06;;;10.09;100.00
21129;BME280;10722;51.910;8.352;2022-12-24T14:01:36;100500.47;;;10.06;100.00
21129;BME280;10722;51.910;8.352;2022-12-24T14:04:29;100510.00;;;10.10;100.00
21129;BME280;10722;51.910;8.352;2022-12-24T14:07:18;100522.16;;;10.14;100.00
21129;BME280;10722;51.910;8.352;2022-12-24T14:10:04;100513.53;;;10.15;100.00
21129;BME280;10722;51.910;8.352;2022-12-24T14:12:51;100523.03;;;10.15;100.00
21129;BME280;10722;51.910;8.352;2022-12-24T14:18:37;100522.16;;;10.14;100.00
21129;BME280;10722;51.910;8.352;2022-12-24T14:21:34;100519.34;;;10.02;100.00
21129;BME280;10722;51.910;8.352;2022-12-24T14:24:30;100520.78;;;9.84;100.00
21129;BME280;10722;51.910;8.352;2022-12-24T14:27:27;100528.44;;;9.78;100.00
21129;BME280;10722;51.910;8.352;2022-12-24T14:33:02;100543.09;;;9.79;100.00
21129;BME280;10722;51.910;8.352;2022-12-24T14:35:48;100548.97;;;9.71;100.00
21129;BME280;10722;51.910;8.352;2022-12-24T14:38:33;100537.84;;;9.75;100.00
21129;BME280;10722;51.910;8.352;2022-12-24T14:41:31;100548.25;;;9.78;100.00
21129;BME280;10722;51.910;8.352;2022-12-24T14:44:43;100545.63;;;9.76;100.00
21129;BME280;10722;51.910;8.352;2022-12-24T14:53:55;100560.25;;;9.76;100.00
21129;BME280;10722;51.910;8.352;2022-12-24T14:56:44;100566.16;;;9.69;100.00
21129;BME280;10722;51.910;8.352;2022-12-24T14:59:29;100572.91;;;9.62;100.00
21129;BME280;10722;51.910;8.352;2022-12-24T15:02:41;100582.38;;;9.61;100.00
21129;BME280;10722;51.910;8.352;2022-12-24T15:05:28;100587.50;;;9.60;100.00
21129;BME280;10722;51.910;8.352;2022-12-24T15:08:17;100583.84;;;9.49;100.00
21129;BME280;10722;51.910;8.352;2022-12-24T15:11:06;100587.38;;;9.54;100.00
21129;BME280;10722;51.910;8.352;2022-12-24T15:13:55;100600.19;;;9.48;100.00
21129;BME280;10722;51.910;8.352;2022-12-24T15:19:41;100623.31;;;9.41;100.00
21129;BME280;10722;51.910;8.352;2022-12-24T15:22:30;100626.59;;;9.34;100.00
21129;BME280;10722;51.910;8.352;2022-12-24T15:25:30;100627.25;;;9.26;100.00
21129;BME280;10722;51.910;8.352;2022-12-24T15:28:21;100621.97;;;9.18;100.00
21129;BME280;10722;51.910;8.352;2022-12-24T15:31:11;100634.94;;;9.21;100.00
21129;BME280;10722;51.910;8.352;2022-12-24T15:33:57;100626.22;;;9.16;100.00
21129;BME280;10722;51.910;8.352;2022-12-24T15:36:42;100634.59;;;9.06;100.00
21129;BME280;10722;51.910;8.352;2022-12-24T15:39:28;100639.88;;;9.12;100.00
21129;BME280;10722;51.910;8.352;2022-12-24T15:42:16;100639.69;;;9.03;100.00
21129;BME280;10722;51.910;8.352;2022-12-24T15:45:19;100647.16;;;8.92;100.00
21129;BME280;10722;51.910;8.352;2022-12-24T15:48:36;100653.97;;;8.88;100.00
21129;BME280;10722;51.910;8.352;2022-12-24T15:51:30;100663.16;;;8.77;100.00
21129;BME280;10722;51.910;8.352;2022-12-24T15:54:19;100664.91;;;8.78;100.00
21129;BME280;10722;51.910;8.352;2022-12-24T16:00:23;100673.28;;;8.68;100.00
21129;BME280;10722;51.910;8.352;2022-12-24T16:03:18;100664.53;;;8.63;100.00
21129;BME280;10722;51.910;8.352;2022-12-24T16:06:08;100667.72;;;8.52;100.00
21129;BME280;10722;51.910;8.352;2022-12-24T16:08:55;100667.44;;;8.42;100.00
21129;BME280;10722;51.910;8.352;2022-12-24T16:11:40;100677.75;;;8.42;100.00
21129;BME280;10722;51.910;8.352;2022-12-24T16:14:25;100684.44;;;8.35;100.00
21129;BME280;10722;51.910;8.352;2022-12-24T16:17:18;100692.25;;;8.38;100.00
21129;BME280;10722;51.910;8.352;2022-12-24T16:20:06;100697.19;;;8.30;100.00
21129;BME280;10722;51.910;8.352;2022-12-24T16:22:59;100697.19;;;8.30;100.00